createdAt,value
2023-02-27T00:01:20.017Z,1.50
2023-02-27T00:03:48.912Z,1.50
2023-02-27T00:06:18.116Z,1.30
2023-02-27T00:08:46.400Z,1.40
2023-02-27T00:11:13.775Z,1.30
2023-02-27T00:13:41.495Z,1.30
2023-02-27T00:16:11.215Z,1.20
2023-02-27T00:18:40.494Z,1.10
2023-02-27T00:21:07.828Z,1.30
2023-02-27T00:23:35.353Z,1.40
2023-02-27T00:26:03.047Z,1.20
2023-02-27T00:28:31.450Z,1.60
2023-02-27T00:30:59.146Z,1.20
2023-02-27T00:33:26.466Z,1.30
2023-02-27T00:36:01.523Z,1.20
2023-02-27T00:38:29.208Z,1.20
2023-02-27T00:40:56.546Z,1.20
2023-02-27T00:43:40.568Z,1.20
2023-02-27T00:46:07.981Z,1.40
2023-02-27T00:51:18.850Z,1.40
2023-02-27T00:53:46.446Z,1.20
2023-02-27T00:56:14.515Z,1.10
2023-02-27T00:58:44.486Z,1.20
2023-02-27T01:01:12.031Z,1.10
2023-02-27T01:03:40.022Z,1.10
2023-02-27T01:06:08.644Z,1.40
2023-02-27T01:08:35.911Z,1.30
2023-02-27T01:11:03.364Z,1.40
2023-02-27T01:13:31.028Z,1.20
2023-02-27T01:16:01.206Z,1.20
2023-02-27T01:18:28.276Z,1.20
2023-02-27T01:20:56.830Z,1.20
2023-02-27T01:23:24.329Z,1.30
2023-02-27T01:25:52.150Z,1.30
2023-02-27T01:28:19.751Z,1.30
2023-02-27T01:30:47.836Z,1.10
2023-02-27T01:33:15.272Z,1.20
2023-02-27T01:35:42.808Z,1.20
2023-02-27T01:38:10.405Z,1.20
2023-02-27T01:40:39.581Z,1.10
2023-02-27T01:43:07.738Z,1.20
2023-02-27T01:45:47.960Z,1.20
2023-02-27T01:48:27.180Z,1.20
2023-02-27T01:51:08.665Z,1.20
2023-02-27T01:53:38.292Z,1.20
2023-02-27T01:56:16.874Z,1.20
2023-02-27T01:58:45.695Z,1.20
2023-02-27T02:01:16.669Z,1.20
2023-02-27T02:04:00.398Z,1.20
2023-02-27T02:06:30.503Z,1.20
2023-02-27T02:09:00.554Z,1.20
2023-02-27T02:11:29.160Z,1.30
2023-02-27T02:13:59.836Z,1.10
2023-02-27T02:16:52.363Z,1.20
2023-02-27T02:20:00.897Z,1.20
2023-02-27T02:22:43.163Z,1.20
2023-02-27T02:25:40.225Z,1.30
2023-02-27T02:28:35.765Z,1.40
2023-02-27T02:31:27.333Z,1.30
2023-02-27T02:34:32.342Z,1.20
2023-02-27T02:37:18.053Z,1.20
2023-02-27T02:39:50.154Z,1.30
2023-02-27T02:42:33.529Z,1.20
2023-02-27T02:45:20.176Z,1.40
2023-02-27T02:47:54.916Z,1.20
2023-02-27T02:50:21.924Z,1.30
2023-02-27T02:52:59.183Z,1.30
2023-02-27T02:55:44.198Z,1.20
2023-02-27T02:58:29.083Z,1.20
2023-02-27T03:01:04.588Z,1.30
2023-02-27T03:03:43.451Z,1.20
2023-02-27T03:06:33.977Z,1.20
2023-02-27T03:09:20.978Z,1.20
2023-02-27T03:11:53.030Z,1.20
2023-02-27T03:14:33.649Z,1.20
2023-02-27T03:17:08.015Z,1.20
2023-02-27T03:19:44.317Z,1.20
2023-02-27T03:22:17.248Z,1.40
2023-02-27T03:24:49.991Z,1.30
2023-02-27T03:27:18.999Z,1.20
2023-02-27T03:30:01.377Z,1.10
2023-02-27T03:32:39.833Z,1.20
2023-02-27T03:35:11.749Z,1.20
2023-02-27T03:37:58.228Z,1.20
2023-02-27T03:40:47.328Z,1.20
2023-02-27T03:43:42.279Z,1.20
2023-02-27T03:46:21.737Z,1.10
2023-02-27T03:48:49.703Z,1.20
2023-02-27T03:51:23.481Z,1.10
2023-02-27T03:53:55.570Z,1.40
2023-02-27T03:56:29.695Z,1.10
2023-02-27T03:58:57.360Z,1.10
2023-02-27T04:01:25.575Z,1.10
2023-02-27T04:03:58.207Z,1.10
2023-02-27T04:06:44.468Z,1.30
2023-02-27T04:09:28.408Z,1.40
2023-02-27T04:12:20.382Z,1.40
2023-02-27T04:15:04.187Z,1.20
2023-02-27T04:17:37.270Z,1.30
2023-02-27T04:20:42.669Z,1.10
2023-02-27T04:23:23.835Z,1.40
2023-02-27T04:26:09.935Z,1.20
2023-02-27T04:28:37.192Z,1.20
2023-02-27T04:31:09.179Z,1.20
2023-02-27T04:33:44.977Z,1.20
2023-02-27T04:36:15.190Z,1.20
2023-02-27T04:39:12.864Z,1.00
2023-02-27T04:41:49.170Z,1.00
2023-02-27T04:44:19.400Z,1.00
2023-02-27T04:46:49.081Z,1.00
2023-02-27T04:49:35.388Z,1.10
2023-02-27T04:52:14.534Z,1.20
2023-02-27T04:54:47.584Z,1.10
2023-02-27T04:57:24.918Z,1.10
2023-02-27T04:59:56.259Z,1.10
2023-02-27T05:02:33.375Z,1.00
2023-02-27T05:05:06.570Z,0.90
2023-02-27T05:07:40.217Z,0.80
2023-02-27T05:10:15.308Z,0.90
2023-02-27T05:12:53.193Z,1.10
2023-02-27T05:15:30.348Z,0.70
2023-02-27T05:18:04.127Z,1.00
2023-02-27T05:20:50.713Z,1.00
2023-02-27T05:23:45.042Z,1.00
2023-02-27T05:26:22.270Z,0.90
2023-02-27T05:29:01.136Z,0.90
2023-02-27T05:31:43.620Z,1.10
2023-02-27T05:34:16.908Z,1.00
2023-02-27T05:36:54.090Z,0.80
2023-02-27T05:39:24.328Z,0.80
2023-02-27T05:42:02.213Z,0.90
2023-02-27T05:44:46.284Z,0.80
2023-02-27T05:47:18.663Z,0.70
2023-02-27T05:50:08.302Z,0.70
2023-02-27T05:52:37.383Z,0.70
2023-02-27T05:55:13.865Z,0.60
2023-02-27T05:57:57.363Z,0.80
2023-02-27T06:00:51.166Z,0.80
2023-02-27T06:03:18.687Z,0.70
2023-02-27T06:05:47.190Z,0.80
2023-02-27T06:08:17.500Z,0.60
2023-02-27T06:10:44.987Z,0.80
2023-02-27T06:13:12.343Z,0.70
2023-02-27T06:15:39.304Z,0.70
2023-02-27T06:18:06.739Z,0.80
2023-02-27T06:20:36.505Z,0.80
2023-02-27T06:23:07.317Z,0.70
2023-02-27T06:25:35.485Z,0.70
2023-02-27T06:28:04.058Z,0.80
2023-02-27T06:30:32.273Z,0.80
2023-02-27T06:33:01.144Z,0.80
2023-02-27T06:35:29.902Z,0.80
2023-02-27T06:37:57.680Z,0.60
2023-02-27T06:40:25.757Z,0.70
2023-02-27T06:43:05.632Z,0.60
2023-02-27T06:45:33.254Z,1.00
2023-02-27T06:48:01.422Z,0.90
2023-02-27T06:50:31.177Z,0.90
2023-02-27T06:52:58.833Z,0.90
2023-02-27T06:55:26.032Z,0.90
2023-02-27T06:57:53.150Z,0.90
2023-02-27T07:00:20.443Z,1.10
2023-02-27T07:02:47.800Z,1.20
2023-02-27T07:05:15.127Z,1.10
2023-02-27T07:07:42.697Z,1.00
2023-02-27T07:10:12.857Z,1.30
2023-02-27T07:12:41.144Z,1.10
2023-02-27T07:15:09.825Z,1.10
2023-02-27T07:17:37.977Z,1.30
2023-02-27T07:20:13.187Z,1.20
2023-02-27T07:22:41.542Z,1.20
2023-02-27T07:25:09.593Z,1.20
2023-02-27T07:27:36.976Z,1.50
2023-02-27T07:30:06.684Z,1.50
2023-02-27T07:32:34.133Z,1.40
2023-02-27T07:35:04.391Z,1.60
2023-02-27T07:37:37.046Z,2.50
2023-02-27T07:40:05.747Z,2.80
2023-02-27T07:42:36.863Z,3.40
2023-02-27T07:45:05.437Z,3.70
2023-02-27T07:47:32.670Z,4.10
2023-02-27T07:50:00.111Z,4.30
2023-02-27T07:54:58.336Z,4.50
2023-02-27T07:57:29.699Z,4.70
2023-02-27T08:00:06.784Z,5.00
2023-02-27T08:02:36.994Z,5.20
2023-02-27T08:05:05.850Z,5.00
2023-02-27T08:07:36.654Z,5.10
2023-02-27T08:10:08.554Z,4.80
2023-02-27T08:12:36.388Z,4.90
2023-02-27T08:15:11.476Z,4.60
2023-02-27T08:17:41.283Z,5.00
2023-02-27T08:20:11.474Z,4.70
2023-02-27T08:22:39.191Z,4.70
2023-02-27T08:25:08.553Z,4.40
2023-02-27T08:27:36.152Z,4.10
2023-02-27T08:30:08.721Z,4.00
2023-02-27T08:32:37.025Z,3.90
2023-02-27T08:35:05.295Z,3.70
2023-02-27T08:37:35.136Z,3.70
2023-02-27T08:40:02.532Z,3.80
2023-02-27T08:42:30.151Z,3.60
2023-02-27T08:45:09.436Z,3.30
2023-02-27T08:47:37.961Z,3.40
2023-02-27T08:50:09.130Z,3.20
2023-02-27T08:52:41.932Z,3.20
2023-02-27T08:55:09.419Z,3.30
2023-02-27T08:57:36.980Z,3.40
2023-02-27T09:00:12.950Z,3.10
2023-02-27T09:02:47.184Z,3.30
2023-02-27T09:05:17.721Z,3.40
2023-02-27T09:07:45.560Z,3.50
2023-02-27T09:10:13.325Z,3.50
2023-02-27T09:12:43.821Z,3.50
2023-02-27T09:15:11.764Z,3.50
2023-02-27T09:17:39.012Z,3.70
2023-02-27T09:20:13.219Z,3.60
2023-02-27T09:22:41.517Z,3.60
2023-02-27T09:25:10.543Z,3.60
2023-02-27T09:27:41.739Z,3.60
2023-02-27T09:30:09.766Z,3.80
2023-02-27T09:32:37.858Z,3.60
2023-02-27T09:35:05.801Z,3.40
2023-02-27T09:37:35.874Z,3.40
2023-02-27T09:40:08.825Z,3.40
2023-02-27T09:42:54.457Z,3.70
2023-02-27T09:45:30.677Z,3.60
2023-02-27T09:48:06.761Z,3.70
2023-02-27T09:50:40.735Z,3.90
2023-02-27T09:53:17.681Z,3.60
2023-02-27T09:55:46.688Z,3.70
2023-02-27T09:58:23.407Z,3.70
2023-02-27T10:00:59.658Z,3.60
2023-02-27T10:03:54.410Z,3.60
2023-02-27T10:06:48.612Z,3.60
2023-02-27T10:09:40.953Z,3.40
2023-02-27T10:12:29.510Z,3.40
2023-02-27T10:15:06.133Z,3.40
2023-02-27T10:17:42.595Z,3.40
2023-02-27T10:20:42.882Z,3.50
2023-02-27T10:23:19.381Z,3.60
2023-02-27T10:25:52.594Z,3.40
2023-02-27T10:28:28.743Z,3.40
2023-02-27T10:31:00.055Z,3.20
2023-02-27T10:33:41.065Z,3.10
2023-02-27T10:36:18.030Z,3.40
2023-02-27T10:39:06.977Z,3.30
2023-02-27T10:41:37.318Z,3.10
2023-02-27T10:44:05.997Z,3.00
2023-02-27T10:46:38.514Z,3.20
2023-02-27T10:49:22.034Z,3.30
2023-02-27T10:52:13.082Z,3.50
2023-02-27T10:54:41.901Z,3.30
2023-02-27T10:57:23.869Z,3.30
2023-02-27T11:00:23.545Z,3.20
2023-02-27T11:02:57.295Z,3.30
2023-02-27T11:05:34.867Z,3.30
2023-02-27T11:08:26.324Z,3.40
2023-02-27T11:11:04.110Z,3.30
2023-02-27T11:13:35.916Z,3.40
2023-02-27T11:16:23.376Z,3.50
2023-02-27T11:18:52.503Z,3.40
2023-02-27T11:21:24.484Z,3.40
2023-02-27T11:24:07.893Z,3.50
2023-02-27T11:26:41.671Z,3.30
2023-02-27T11:29:09.140Z,3.40
2023-02-27T11:31:38.251Z,3.10
2023-02-27T11:34:08.514Z,3.40
2023-02-27T11:37:04.367Z,3.40
2023-02-27T11:39:37.464Z,3.40
2023-02-27T11:42:31.769Z,3.20
2023-02-27T11:45:08.920Z,3.40
2023-02-27T11:47:44.774Z,3.40
2023-02-27T11:50:43.079Z,3.50
2023-02-27T11:53:23.155Z,3.50
2023-02-27T11:56:00.746Z,3.40
2023-02-27T11:58:35.973Z,3.50
2023-02-27T12:01:07.870Z,3.40
2023-02-27T12:03:56.547Z,3.40
2023-02-27T12:06:29.646Z,3.40
2023-02-27T12:09:10.114Z,3.30
2023-02-27T12:11:46.428Z,3.20
2023-02-27T12:14:51.475Z,3.00
2023-02-27T12:17:46.326Z,3.20
2023-02-27T12:20:22.691Z,3.00
2023-02-27T12:22:55.500Z,3.30
2023-02-27T12:25:43.659Z,3.30
2023-02-27T12:28:26.879Z,3.30
2023-02-27T12:31:19.134Z,3.50
2023-02-27T12:34:18.675Z,3.40
2023-02-27T12:36:50.054Z,3.30
2023-02-27T12:39:20.855Z,3.50
2023-02-27T12:42:17.682Z,3.30
2023-02-27T12:45:13.572Z,3.30
2023-02-27T12:47:55.792Z,3.40
2023-02-27T12:50:25.945Z,3.10
2023-02-27T12:53:27.309Z,3.40
2023-02-27T12:56:22.146Z,3.20
2023-02-27T12:59:01.425Z,3.20
2023-02-27T13:01:51.277Z,3.30
2023-02-27T13:04:39.017Z,3.40
2023-02-27T13:07:19.576Z,3.40
2023-02-27T13:10:02.368Z,3.20
2023-02-27T13:12:39.252Z,3.30
2023-02-27T13:15:18.296Z,3.20
2023-02-27T13:17:58.725Z,3.10
2023-02-27T13:20:44.725Z,3.20
2023-02-27T13:23:31.365Z,3.10
2023-02-27T13:26:04.162Z,3.20
2023-02-27T13:28:32.126Z,3.10
2023-02-27T13:31:14.057Z,2.90
2023-02-27T13:33:54.154Z,2.90
2023-02-27T13:36:45.301Z,3.10
2023-02-27T13:39:45.967Z,3.20
2023-02-27T13:42:29.179Z,3.20
2023-02-27T13:45:01.823Z,3.10
2023-02-27T13:47:51.667Z,3.30
2023-02-27T13:50:18.843Z,3.40
2023-02-27T13:52:47.263Z,3.30
2023-02-27T13:55:29.760Z,3.20
2023-02-27T13:58:00.184Z,3.40
2023-02-27T14:00:31.467Z,3.20
2023-02-27T14:03:10.303Z,3.40
2023-02-27T14:05:42.582Z,3.40
2023-02-27T14:08:29.529Z,3.20
2023-02-27T14:11:34.538Z,3.40
2023-02-27T14:14:04.420Z,3.10
2023-02-27T14:16:38.130Z,3.50
2023-02-27T14:19:23.237Z,3.10
2023-02-27T14:22:14.206Z,3.40
2023-02-27T14:24:59.947Z,3.20
2023-02-27T14:27:47.977Z,3.20
2023-02-27T14:30:31.534Z,3.10
2023-02-27T14:33:39.720Z,2.90
2023-02-27T14:36:21.711Z,3.20
2023-02-27T14:38:50.981Z,3.10
2023-02-27T14:41:32.563Z,3.10
2023-02-27T14:44:00.450Z,3.20
2023-02-27T14:46:37.794Z,2.60
2023-02-27T14:49:36.661Z,2.70
2023-02-27T14:52:18.939Z,2.80
2023-02-27T14:54:46.311Z,2.60
2023-02-27T14:57:23.782Z,2.70
2023-02-27T14:59:53.650Z,2.60
2023-02-27T15:02:26.306Z,2.90
2023-02-27T15:05:16.052Z,2.90
2023-02-27T15:07:53.650Z,2.60
2023-02-27T15:10:30.810Z,2.70
2023-02-27T15:13:02.229Z,2.80
2023-02-27T15:15:30.158Z,2.50
2023-02-27T15:17:58.028Z,2.60
2023-02-27T15:20:35.319Z,2.60
2023-02-27T15:23:27.797Z,2.70
2023-02-27T15:25:57.627Z,2.70
2023-02-27T15:28:28.098Z,2.50
2023-02-27T15:30:58.292Z,2.60
2023-02-27T15:33:33.500Z,2.70
2023-02-27T15:36:04.270Z,2.20
2023-02-27T15:38:35.072Z,2.20
2023-02-27T15:41:05.704Z,2.40
2023-02-27T15:43:35.990Z,2.20
2023-02-27T15:46:03.946Z,2.40
2023-02-27T15:48:32.638Z,2.30
2023-02-27T15:51:07.377Z,2.50
2023-02-27T15:53:37.051Z,2.50
2023-02-27T15:56:11.185Z,2.40
2023-02-27T15:58:50.864Z,2.30
2023-02-27T16:01:26.209Z,2.40
2023-02-27T16:03:58.084Z,2.30
2023-02-27T16:06:38.627Z,2.40
2023-02-27T16:09:33.634Z,2.40
2023-02-27T16:12:22.952Z,2.40
2023-02-27T16:14:53.370Z,2.40
2023-02-27T16:17:36.350Z,2.20
2023-02-27T16:20:30.344Z,1.90
2023-02-27T16:23:10.623Z,1.90
2023-02-27T16:25:47.696Z,1.90
2023-02-27T16:28:26.886Z,1.90
2023-02-27T16:31:34.886Z,1.90
2023-02-27T16:34:26.118Z,2.10
2023-02-27T16:37:08.440Z,1.90
2023-02-27T16:39:54.785Z,2.20
2023-02-27T16:42:22.892Z,2.00
2023-02-27T16:44:52.525Z,1.80
2023-02-27T16:47:23.129Z,2.10
2023-02-27T16:49:50.770Z,1.80
2023-02-27T16:52:22.831Z,2.00
2023-02-27T16:54:50.831Z,1.90
2023-02-27T16:57:28.528Z,1.90
2023-02-27T17:00:00.720Z,2.20
2023-02-27T17:02:30.215Z,1.80
2023-02-27T17:04:57.879Z,2.10
2023-02-27T17:07:25.530Z,2.20
2023-02-27T17:10:08.513Z,1.90
2023-02-27T17:12:39.606Z,1.60
2023-02-27T17:15:06.946Z,1.90
2023-02-27T17:17:37.529Z,2.00
2023-02-27T17:20:15.611Z,1.70
2023-02-27T17:22:51.125Z,1.70
2023-02-27T17:25:30.214Z,1.70
2023-02-27T17:28:00.562Z,1.80
2023-02-27T17:30:53.793Z,1.90
2023-02-27T17:33:24.232Z,1.60
2023-02-27T17:36:15.615Z,1.70
2023-02-27T17:38:51.218Z,1.70
2023-02-27T17:41:22.832Z,1.60
2023-02-27T17:43:52.112Z,1.70
2023-02-27T17:46:19.612Z,1.80
2023-02-27T17:48:47.361Z,1.90
2023-02-27T17:51:16.495Z,1.90
2023-02-27T17:53:44.817Z,1.60
2023-02-27T17:56:13.283Z,1.70
2023-02-27T17:58:42.064Z,1.70
2023-02-27T18:01:21.981Z,1.80
2023-02-27T18:03:50.652Z,1.60
2023-02-27T18:06:22.066Z,1.60
2023-02-27T18:09:01.211Z,1.60
2023-02-27T18:11:28.927Z,1.50
2023-02-27T18:13:57.011Z,1.60
2023-02-27T18:16:24.235Z,1.70
2023-02-27T18:18:51.457Z,1.80
2023-02-27T18:21:20.987Z,1.90
2023-02-27T18:23:49.627Z,1.60
2023-02-27T18:26:32.459Z,1.70
2023-02-27T18:29:08.848Z,1.60
2023-02-27T18:31:42.986Z,1.60
2023-02-27T18:34:11.453Z,1.40
2023-02-27T18:36:39.334Z,1.70
2023-02-27T18:39:07.751Z,1.60
2023-02-27T18:41:35.442Z,1.60
2023-02-27T18:44:03.084Z,1.60
2023-02-27T18:46:33.979Z,1.90
2023-02-27T18:49:01.237Z,1.50
2023-02-27T18:51:29.302Z,1.40
2023-02-27T18:53:58.428Z,1.60
2023-02-27T18:56:27.695Z,1.40
2023-02-27T18:59:02.142Z,1.40
2023-02-27T19:01:31.524Z,1.50
2023-02-27T19:04:03.735Z,1.40
2023-02-27T19:06:33.822Z,1.40
2023-02-27T19:09:03.738Z,1.80
2023-02-27T19:11:35.821Z,1.70
2023-02-27T19:14:05.798Z,1.50
2023-02-27T19:16:33.728Z,1.30
2023-02-27T19:19:03.535Z,1.40
2023-02-27T19:21:32.382Z,1.60
2023-02-27T19:24:00.858Z,1.40
2023-02-27T19:29:26.996Z,1.30
2023-02-27T19:31:54.498Z,1.30
2023-02-27T19:34:22.316Z,1.40
2023-02-27T19:36:52.654Z,1.40
2023-02-27T19:39:20.194Z,1.30
2023-02-27T19:41:47.714Z,1.60
2023-02-27T19:44:15.443Z,1.40
2023-02-27T19:46:46.777Z,1.40
2023-02-27T19:49:14.038Z,1.20
2023-02-27T19:51:42.001Z,1.20
2023-02-27T19:54:29.081Z,1.20
2023-02-27T19:56:56.284Z,1.20
2023-02-27T19:59:27.435Z,1.20
2023-02-27T20:01:58.081Z,1.20
2023-02-27T20:04:25.931Z,1.20
2023-02-27T20:06:53.898Z,1.10
2023-02-27T20:09:21.315Z,1.40
2023-02-27T20:11:51.786Z,1.20
2023-02-27T20:14:19.408Z,1.20
2023-02-27T20:16:47.498Z,1.20
2023-02-27T20:19:18.044Z,1.20
2023-02-27T20:21:46.512Z,1.30
2023-02-27T20:24:14.862Z,1.20
2023-02-27T20:26:44.888Z,1.30
2023-02-27T20:29:19.110Z,1.20
2023-02-27T20:31:48.326Z,1.20
2023-02-27T20:34:22.106Z,1.20
2023-02-27T20:36:51.050Z,1.20
2023-02-27T20:39:19.642Z,1.20
2023-02-27T20:41:50.731Z,1.20
2023-02-27T20:44:18.458Z,1.30
2023-02-27T20:46:49.539Z,1.30
2023-02-27T20:49:19.298Z,1.20
2023-02-27T20:51:46.902Z,1.20
2023-02-27T20:54:20.527Z,1.20
2023-02-27T20:56:52.369Z,1.20
2023-02-27T20:59:20.981Z,1.20
2023-02-27T21:01:51.950Z,1.20
2023-02-27T21:04:47.740Z,1.10
2023-02-27T21:07:26.295Z,1.40
2023-02-27T21:10:02.345Z,1.10
2023-02-27T21:12:31.934Z,1.20
2023-02-27T21:15:08.666Z,1.10
2023-02-27T21:17:42.410Z,1.40
2023-02-27T21:20:13.376Z,1.10
2023-02-27T21:22:40.921Z,1.20
2023-02-27T21:25:15.968Z,1.20
2023-02-27T21:30:24.329Z,1.40
2023-02-27T21:32:51.557Z,1.20
2023-02-27T21:35:29.989Z,1.20
2023-02-27T21:37:59.931Z,1.00
2023-02-27T21:40:27.241Z,1.00
2023-02-27T21:42:57.933Z,0.90
2023-02-27T21:45:27.645Z,0.90
2023-02-27T21:47:54.607Z,1.00
2023-02-27T21:50:23.213Z,0.90
2023-02-27T21:52:50.275Z,1.00
2023-02-27T21:55:21.284Z,1.00
2023-02-27T21:57:50.707Z,1.00
2023-02-27T22:00:18.745Z,1.00
2023-02-27T22:02:49.061Z,1.20
2023-02-27T22:05:16.796Z,1.00
2023-02-27T22:07:44.197Z,1.10
2023-02-27T22:10:12.176Z,1.20
2023-02-27T22:12:39.633Z,1.20
2023-02-27T22:15:10.608Z,1.10
2023-02-27T22:17:37.721Z,1.00
2023-02-27T22:20:07.447Z,1.20
2023-02-27T22:22:50.312Z,0.90
2023-02-27T22:25:20.695Z,0.90
2023-02-27T22:27:48.420Z,1.00
2023-02-27T22:30:15.824Z,1.00
2023-02-27T22:32:43.193Z,1.00
2023-02-27T22:35:10.833Z,0.90
2023-02-27T22:37:38.371Z,1.00
2023-02-27T22:40:16.548Z,1.10
2023-02-27T22:42:45.600Z,1.00
2023-02-27T22:45:18.685Z,1.00
2023-02-27T22:47:48.473Z,0.90
2023-02-27T22:50:16.197Z,1.00
2023-02-27T22:52:43.738Z,0.80
2023-02-27T22:55:19.652Z,1.00
2023-02-27T22:57:51.928Z,0.90
2023-02-27T23:00:21.450Z,1.00
2023-02-27T23:02:49.189Z,0.90
2023-02-27T23:05:16.679Z,1.10
2023-02-27T23:07:44.203Z,1.00
2023-02-27T23:10:12.687Z,1.30
2023-02-27T23:12:40.434Z,1.10
2023-02-27T23:15:09.119Z,1.10
2023-02-27T23:17:43.561Z,0.90
2023-02-27T23:20:18.401Z,1.00
2023-02-27T23:22:45.746Z,1.30
2023-02-27T23:25:13.168Z,1.00
2023-02-27T23:27:40.762Z,1.10
2023-02-27T23:30:08.787Z,1.00
2023-02-27T23:32:43.569Z,1.20
2023-02-27T23:35:12.303Z,1.20
2023-02-27T23:37:40.644Z,1.20
2023-02-27T23:40:09.815Z,1.30
2023-02-27T23:42:56.504Z,1.30
2023-02-27T23:45:24.085Z,1.10
2023-02-27T23:47:57.912Z,1.10
2023-02-27T23:50:38.667Z,1.20
2023-02-27T23:53:07.147Z,1.20
2023-02-27T23:55:36.612Z,1.30
2023-02-27T23:58:07.288Z,1.40
